createdAt,value
2022-09-22T00:02:17.129Z,100799.41
2022-09-22T00:04:47.882Z,100805.53
2022-09-22T00:07:20.246Z,100807.19
2022-09-22T00:09:51.493Z,100806.06
2022-09-22T00:12:22.069Z,100801.84
2022-09-22T00:14:52.780Z,100805.72
2022-09-22T00:17:25.038Z,100802.63
2022-09-22T00:19:55.777Z,100808.97
2022-09-22T00:22:27.318Z,100812.53
2022-09-22T00:24:57.982Z,100804.91
2022-09-22T00:27:29.287Z,100811.22
2022-09-22T00:30:00.612Z,100805.41
2022-09-22T00:32:32.860Z,100816.75
2022-09-22T00:35:03.604Z,100819.19
2022-09-22T00:37:34.703Z,100821.66
2022-09-22T00:40:06.378Z,100823.56
2022-09-22T00:42:37.417Z,100822.25
2022-09-22T00:45:08.963Z,100839.59
2022-09-22T00:47:43.613Z,100839.59
2022-09-22T00:50:22.492Z,100850.34
2022-09-22T00:53:00.339Z,100855.03
2022-09-22T00:55:43.751Z,100861.66
2022-09-22T00:58:19.006Z,100866.88
2022-09-22T01:00:50.101Z,100859.41
2022-09-22T01:03:29.732Z,100868.19
2022-09-22T01:06:04.782Z,100875.66
2022-09-22T01:08:37.094Z,100875.66
2022-09-22T01:11:09.241Z,100874.03
2022-09-22T01:13:48.778Z,100884.22
2022-09-22T01:16:37.718Z,100897.50
2022-09-22T01:19:08.490Z,100909.38
2022-09-22T01:21:56.574Z,100914.88
2022-09-22T01:25:10.629Z,100911.31
2022-09-22T01:28:17.894Z,100912.47
2022-09-22T01:31:00.562Z,100916.00
2022-09-22T01:33:39.702Z,100917.97
2022-09-22T01:36:49.794Z,100927.84
2022-09-22T01:39:31.770Z,100926.25
2022-09-22T01:42:27.755Z,100927.84
2022-09-22T01:45:11.851Z,100934.50
2022-09-22T01:47:58.472Z,100933.69
2022-09-22T01:50:36.200Z,100943.59
2022-09-22T01:53:13.344Z,100949.91
2022-09-22T01:55:48.862Z,100954.81
2022-09-22T01:58:35.171Z,100961.44
2022-09-22T02:01:17.148Z,100965.84
2022-09-22T02:03:54.010Z,100966.16
2022-09-22T02:06:55.651Z,100965.03
2022-09-22T02:09:28.057Z,100974.72
2022-09-22T02:12:00.384Z,100978.00
2022-09-22T02:14:31.782Z,100979.94
2022-09-22T02:17:04.175Z,100970.56
2022-09-22T02:19:41.282Z,100980.25
2022-09-22T02:22:14.395Z,100980.44
2022-09-22T02:24:46.378Z,100991.16
2022-09-22T02:27:30.656Z,100977.88
2022-09-22T02:30:04.050Z,100982.38
2022-09-22T02:32:37.380Z,100979.00
2022-09-22T02:35:10.619Z,100979.84
2022-09-22T02:37:50.255Z,100986.66
2022-09-22T02:40:36.288Z,100977.88
2022-09-22T02:43:24.973Z,100973.16
2022-09-22T02:46:08.144Z,100966.53
2022-09-22T02:49:03.486Z,100970.41
2022-09-22T02:51:34.997Z,100970.13
2022-09-22T02:54:06.445Z,100959.59
2022-09-22T02:56:37.862Z,100960.13
2022-09-22T02:59:08.976Z,100953.78
2022-09-22T03:01:40.571Z,100952.34
2022-09-22T03:04:11.377Z,100953.78
2022-09-22T03:06:42.094Z,100942.75
2022-09-22T03:09:12.871Z,100941.31
2022-09-22T03:11:43.842Z,100947.31
2022-09-22T03:14:14.853Z,100942.94
2022-09-22T03:16:45.859Z,100944.56
2022-09-22T03:19:16.760Z,100933.53
2022-09-22T03:21:47.772Z,100939.56
2022-09-22T03:24:18.813Z,100937.13
2022-09-22T03:26:49.646Z,100935.16
2022-09-22T03:29:21.188Z,100937.63
2022-09-22T03:31:52.115Z,100930.16
2022-09-22T03:34:23.020Z,100921.06
2022-09-22T03:36:54.191Z,100920.75
2022-09-22T03:39:25.107Z,100920.13
2022-09-22T03:41:55.947Z,100912.66
2022-09-22T03:44:29.156Z,100907.13
2022-09-22T03:46:59.893Z,100906.00
2022-09-22T03:49:31.248Z,100908.78
2022-09-22T03:52:01.944Z,100900.19
2022-09-22T03:54:33.442Z,100900.19
2022-09-22T03:57:04.136Z,100891.94
2022-09-22T03:59:35.417Z,100886.41
2022-09-22T04:02:07.165Z,100887.53
2022-09-22T04:04:38.166Z,100881.69
2022-09-22T04:07:08.998Z,100883.31
2022-09-22T04:09:39.894Z,100877.81
2022-09-22T04:12:11.450Z,100869.53
2022-09-22T04:14:42.288Z,100876.69
2022-09-22T04:17:13.600Z,100876.84
2022-09-22T04:19:43.935Z,100865.81
2022-09-22T04:22:14.509Z,100854.28
2022-09-22T04:24:45.389Z,100865.31
2022-09-22T04:27:19.965Z,100863.38
2022-09-22T04:29:52.220Z,100858.38
2022-09-22T04:32:23.043Z,100852.53
2022-09-22T04:34:53.727Z,100855.28
2022-09-22T04:37:24.312Z,100852.53
2022-09-22T04:39:57.045Z,100852.22
2022-09-22T04:42:27.924Z,100847.00
2022-09-22T04:45:04.494Z,100831.28
2022-09-22T04:47:36.220Z,100849.47
2022-09-22T04:50:07.457Z,100843.63
2022-09-22T04:52:38.193Z,100836.97
2022-09-22T04:55:09.699Z,100833.09
2022-09-22T04:57:40.686Z,100831.13
2022-09-22T05:00:12.619Z,100817.84
2022-09-22T05:02:43.484Z,100806.50
2022-09-22T05:05:15.650Z,100806.50
2022-09-22T05:07:48.924Z,100799.81
2022-09-22T05:10:23.402Z,100791.72
2022-09-22T05:12:56.232Z,100773.84
2022-09-22T05:15:27.304Z,100771.59
2022-09-22T05:17:58.318Z,100761.03
2022-09-22T05:20:29.651Z,100753.91
2022-09-22T05:23:01.689Z,100751.63
2022-09-22T05:25:32.525Z,100736.72
2022-09-22T05:28:03.443Z,100728.44
2022-09-22T05:30:34.296Z,100728.44
2022-09-22T05:33:05.069Z,100720.94
2022-09-22T05:35:37.038Z,100719.03
2022-09-22T05:38:08.007Z,100712.03
2022-09-22T05:40:38.707Z,100705.72
2022-09-22T05:43:09.453Z,100697.44
2022-09-22T05:45:40.358Z,100685.28
2022-09-22T05:48:11.403Z,100684.28
2022-09-22T05:50:42.086Z,100678.44
2022-09-22T05:53:14.066Z,100667.75
2022-09-22T05:55:44.882Z,100667.41
2022-09-22T05:58:16.226Z,100656.38
2022-09-22T06:00:47.148Z,100655.72
2022-09-22T06:03:17.839Z,100635.91
2022-09-22T06:05:48.705Z,100639.50
2022-09-22T06:08:20.158Z,100627.00
2022-09-22T06:10:53.789Z,100628.47
2022-09-22T06:13:24.576Z,100618.22
2022-09-22T06:15:55.258Z,100615.78
2022-09-22T06:18:27.972Z,100607.50
2022-09-22T06:20:59.109Z,100611.56
2022-09-22T06:23:30.133Z,100605.56
2022-09-22T06:26:02.182Z,100603.13
2022-09-22T06:28:32.877Z,100601.66
2022-09-22T06:31:04.093Z,100594.19
2022-09-22T06:33:35.044Z,100590.63
2022-09-22T06:36:06.065Z,100587.06
2022-09-22T06:38:36.813Z,100582.81
2022-09-22T06:41:09.315Z,100579.56
2022-09-22T06:43:40.523Z,100577.31
2022-09-22T06:46:13.711Z,100563.84
2022-09-22T06:48:44.564Z,100557.50
2022-09-22T06:51:15.742Z,100542.56
2022-09-22T06:53:51.675Z,100544.84
2022-09-22T06:56:23.055Z,100533.16
2022-09-22T06:59:09.524Z,100536.25
2022-09-22T07:01:42.795Z,100534.28
2022-09-22T07:04:15.026Z,100522.94
2022-09-22T07:06:46.135Z,100511.06
2022-09-22T07:09:16.811Z,100507.16
2022-09-22T07:11:47.766Z,100512.69
2022-09-22T07:14:18.535Z,100512.06
2022-09-22T07:16:49.426Z,100507.34
2022-09-22T07:19:20.276Z,100502.00
2022-09-22T07:21:51.109Z,100509.94
2022-09-22T07:24:22.188Z,100505.06
2022-09-22T07:26:53.813Z,100501.53
2022-09-22T07:29:24.559Z,100500.38
2022-09-22T07:31:56.000Z,100504.28
2022-09-22T07:34:26.792Z,100499.56
2022-09-22T07:36:57.890Z,100489.66
2022-09-22T07:39:28.543Z,100489.34
2022-09-22T07:41:59.187Z,100482.19
2022-09-22T07:44:48.486Z,100477.81
2022-09-22T07:47:39.165Z,100466.78
2022-09-22T07:50:10.384Z,100464.81
2022-09-22T07:52:41.086Z,100462.53
2022-09-22T07:55:12.423Z,100459.44
2022-09-22T07:57:43.390Z,100452.31
2022-09-22T08:00:15.039Z,100450.84
2022-09-22T08:02:47.180Z,100446.13
2022-09-22T08:05:18.963Z,100440.59
2022-09-22T08:07:49.754Z,100431.19
2022-09-22T08:10:22.178Z,100431.84
2022-09-22T08:13:00.723Z,100430.88
2022-09-22T08:15:31.647Z,100431.19
2022-09-22T08:18:02.359Z,100433.44
2022-09-22T08:20:33.359Z,100433.44
2022-09-22T08:23:05.781Z,100428.75
2022-09-22T08:25:37.493Z,100424.03
2022-09-22T08:28:08.169Z,100409.75
2022-09-22T08:30:39.292Z,100417.72
2022-09-22T08:33:10.690Z,100410.56
2022-09-22T08:35:41.837Z,100421.28
2022-09-22T08:38:13.020Z,100422.41
2022-09-22T08:40:46.221Z,100432.31
2022-09-22T08:43:18.246Z,100429.56
2022-09-22T08:45:50.451Z,100433.94
2022-09-22T08:48:47.442Z,100426.47
2022-09-22T08:51:51.504Z,100426.13
2022-09-22T08:54:37.976Z,100424.22
2022-09-22T08:57:13.601Z,100415.09
2022-09-22T09:00:09.539Z,100431.66
2022-09-22T09:02:55.786Z,100429.72
2022-09-22T09:05:48.751Z,100430.88
2022-09-22T09:08:44.151Z,100438.81
2022-09-22T09:11:17.743Z,100437.66
2022-09-22T09:14:12.275Z,100440.78
2022-09-22T09:17:20.833Z,100444.66
2022-09-22T09:20:00.560Z,100450.69
2022-09-22T09:22:45.098Z,100452.63
2022-09-22T09:25:23.829Z,100447.91
2022-09-22T09:28:04.267Z,100445.59
2022-09-22T09:31:05.130Z,100445.31
2022-09-22T09:34:00.236Z,100449.19
2022-09-22T09:36:35.770Z,100453.91
2022-09-22T09:39:19.858Z,100448.06
2022-09-22T09:41:51.936Z,100453.59
2022-09-22T09:44:42.912Z,100453.09
2022-09-22T09:47:43.613Z,100455.03
2022-09-22T09:50:14.754Z,100448.72
2022-09-22T09:52:45.840Z,100448.72
2022-09-22T09:55:28.344Z,100450.00
2022-09-22T09:58:14.218Z,100455.03
2022-09-22T10:01:02.760Z,100450.34
2022-09-22T10:03:37.602Z,100450.34
2022-09-22T10:06:11.847Z,100454.72
2022-09-22T10:08:54.314Z,100455.03
2022-09-22T10:11:34.146Z,100454.22
2022-09-22T10:14:05.104Z,100454.72
2022-09-22T10:16:38.679Z,100466.56
2022-09-22T10:19:25.643Z,100467.03
2022-09-22T10:21:58.311Z,100469.31
2022-09-22T10:24:35.201Z,100470.94
2022-09-22T10:27:07.466Z,100470.47
2022-09-22T10:29:38.629Z,100475.66
2022-09-22T10:32:15.647Z,100473.22
2022-09-22T10:34:54.618Z,100484.75
2022-09-22T10:37:31.572Z,100482.63
2022-09-22T10:40:08.027Z,100490.59
2022-09-22T10:42:43.624Z,100494.50
2022-09-22T10:45:21.910Z,100494.50
2022-09-22T10:51:02.149Z,100515.13
2022-09-22T10:53:49.616Z,100520.97
2022-09-22T10:56:52.182Z,100525.38
2022-09-22T10:59:55.793Z,100527.78
2022-09-22T11:03:03.325Z,100539.66
2022-09-22T11:06:10.627Z,100545.19
2022-09-22T11:09:32.552Z,100545.19
2022-09-22T11:12:29.930Z,100555.41
2022-09-22T11:15:48.440Z,100559.78
2022-09-22T11:18:53.273Z,100563.69
2022-09-22T11:21:35.449Z,100561.56
2022-09-22T11:24:34.726Z,100563.53
2022-09-22T11:27:06.655Z,100563.03
2022-09-22T11:29:59.799Z,100566.28
2022-09-22T11:33:04.814Z,100569.84
2022-09-22T11:36:14.591Z,100564.81
2022-09-22T11:39:12.901Z,100568.41
2022-09-22T11:42:09.315Z,100575.56
2022-09-22T11:45:02.419Z,100586.59
2022-09-22T11:47:51.672Z,100585.47
2022-09-22T11:50:42.175Z,100584.63
2022-09-22T11:53:34.759Z,100590.63
2022-09-22T11:56:13.954Z,100584.97
2022-09-22T11:58:47.513Z,100589.66
2022-09-22T12:01:26.157Z,100594.38
2022-09-22T12:04:05.886Z,100602.66
2022-09-22T12:06:46.092Z,100597.16
2022-09-22T12:09:44.145Z,100613.72
2022-09-22T12:12:21.390Z,100625.56
2022-09-22T12:15:03.334Z,100642.59
2022-09-22T12:18:03.162Z,100650.09
2022-09-22T12:21:06.257Z,100654.94
2022-09-22T12:23:51.757Z,100661.13
2022-09-22T12:26:31.769Z,100668.28
2022-09-22T12:29:07.359Z,100662.75
2022-09-22T12:31:43.653Z,100679.00
2022-09-22T12:34:23.641Z,100688.75
2022-09-22T12:37:02.410Z,100695.22
2022-09-22T12:39:35.677Z,100698.81
2022-09-22T12:42:20.944Z,100696.72
2022-09-22T12:44:59.953Z,100706.28
2022-09-22T12:47:41.335Z,100708.41
2022-09-22T12:50:27.018Z,100710.50
2022-09-22T12:52:57.555Z,100719.94
2022-09-22T12:55:31.274Z,100714.25
2022-09-22T12:58:05.585Z,100728.72
2022-09-22T13:00:45.912Z,100730.19
2022-09-22T13:03:28.960Z,100729.69
2022-09-22T13:06:02.796Z,100729.19
2022-09-22T13:08:36.349Z,100740.22
2022-09-22T13:11:11.743Z,100745.72
2022-09-22T13:13:51.019Z,100751.09
2022-09-22T13:16:21.878Z,100762.72
2022-09-22T13:18:56.665Z,100771.63
2022-09-22T13:21:29.689Z,100769.69
2022-09-22T13:24:01.390Z,100773.88
2022-09-22T13:26:45.147Z,100783.59
2022-09-22T13:29:24.965Z,100791.16
2022-09-22T13:31:59.539Z,100803.50
2022-09-22T13:34:37.233Z,100813.09
2022-09-22T13:37:11.992Z,100819.59
2022-09-22T13:39:48.081Z,100822.84
2022-09-22T13:42:34.004Z,100837.25
2022-09-22T13:45:17.501Z,100837.78
2022-09-22T13:47:50.399Z,100840.19
2022-09-22T13:50:24.259Z,100848.31
2022-09-22T13:52:55.840Z,100848.81
2022-09-22T13:55:33.761Z,100847.06
2022-09-22T13:58:06.436Z,100846.72
2022-09-22T14:01:09.059Z,100849.19
2022-09-22T14:03:41.434Z,100857.13
2022-09-22T14:06:39.498Z,100862.03
2022-09-22T14:09:10.369Z,100869.34
2022-09-22T14:11:41.862Z,100874.84
2022-09-22T14:14:30.120Z,100870.13
2022-09-22T14:17:00.782Z,100875.97
2022-09-22T14:19:40.237Z,100883.59
2022-09-22T14:22:26.412Z,100886.66
2022-09-22T14:25:03.049Z,100885.94
2022-09-22T14:27:35.716Z,100894.38
2022-09-22T14:30:08.198Z,100894.19
2022-09-22T14:32:47.144Z,100897.56
2022-09-22T14:35:41.481Z,100905.22
2022-09-22T14:38:18.569Z,100908.19
2022-09-22T14:41:01.491Z,100908.66
2022-09-22T14:43:44.705Z,100912.69
2022-09-22T14:46:36.398Z,100917.38
2022-09-22T14:49:38.091Z,100934.78
2022-09-22T14:52:14.648Z,100941.72
2022-09-22T14:54:47.423Z,100940.41
2022-09-22T14:57:20.214Z,100927.25
2022-09-22T15:00:14.667Z,100925.81
2022-09-22T15:02:52.170Z,100934.97
2022-09-22T15:05:32.878Z,100929.72
2022-09-22T15:08:04.768Z,100930.00
2022-09-22T15:10:37.884Z,100931.69
2022-09-22T15:13:32.325Z,100921.59
2022-09-22T15:16:03.395Z,100924.53
2022-09-22T15:18:34.207Z,100909.78
2022-09-22T15:21:31.612Z,100908.94
2022-09-22T15:24:03.253Z,100905.72
2022-09-22T15:26:37.666Z,100901.00
2022-09-22T15:29:08.432Z,100910.19
2022-09-22T15:31:39.634Z,100907.75
2022-09-22T15:34:14.768Z,100903.69
2022-09-22T15:36:49.518Z,100907.59
2022-09-22T22:37:03.885Z,100748.63
2022-09-22T22:39:35.284Z,100763.22
2022-09-22T22:42:05.666Z,100764.72
2022-09-22T22:44:37.847Z,100765.53
2022-09-22T22:47:08.929Z,100770.13
2022-09-22T22:49:39.630Z,100767.84
2022-09-22T22:52:10.439Z,100773.47
2022-09-22T22:54:41.378Z,100769.91
2022-09-22T22:57:12.059Z,100772.66
2022-09-22T22:59:42.762Z,100779.59
2022-09-22T23:02:15.036Z,100778.25
2022-09-22T23:04:45.839Z,100789.88
2022-09-22T23:07:17.169Z,100790.22
2022-09-22T23:09:48.027Z,100797.47
2022-09-22T23:12:21.018Z,100794.78
2022-09-22T23:14:51.931Z,100798.03
2022-09-22T23:17:22.853Z,100797.97
2022-09-22T23:19:53.632Z,100799.59
2022-09-22T23:22:24.465Z,100802.97
2022-09-22T23:24:55.081Z,100810.09
2022-09-22T23:27:26.702Z,100822.44
2022-09-22T23:29:59.441Z,100828.78
2022-09-22T23:32:30.337Z,100839.81
2022-09-22T23:35:01.045Z,100840.59
2022-09-22T23:37:31.871Z,100842.84
2022-09-22T23:40:02.460Z,100852.75
2022-09-22T23:42:33.444Z,100849.47
2022-09-22T23:45:04.426Z,100853.69
2022-09-22T23:47:35.618Z,100860.84
2022-09-22T23:50:06.498Z,100862.75
2022-09-22T23:52:37.424Z,100869.41
2022-09-22T23:55:08.773Z,100869.69
2022-09-22T23:57:39.781Z,100880.44
